createdAt,value
2018-04-26T00:00:33.983Z,1.60
2018-04-26T00:01:40.704Z,2.40
2018-04-26T00:02:47.447Z,1.80
2018-04-26T00:03:54.123Z,1.70
2018-04-26T00:05:01.294Z,2.00
2018-04-26T00:06:08.028Z,1.80
2018-04-26T00:07:14.755Z,1.80
2018-04-26T00:08:21.754Z,1.90
2018-04-26T00:09:28.458Z,1.90
2018-04-26T00:10:35.180Z,1.80
2018-04-26T00:11:41.891Z,1.90
2018-04-26T00:12:48.704Z,2.10
2018-04-26T00:13:55.390Z,2.00
2018-04-26T00:15:02.149Z,1.80
2018-04-26T00:16:08.892Z,1.90
2018-04-26T00:17:15.763Z,1.90
2018-04-26T00:18:22.471Z,1.70
2018-04-26T00:19:29.187Z,1.70
2018-04-26T00:20:35.883Z,1.70
2018-04-26T00:21:42.582Z,2.00
2018-04-26T00:22:49.287Z,1.90
2018-04-26T00:23:56.063Z,1.80
2018-04-26T00:25:02.756Z,1.80
2018-04-26T00:26:09.466Z,2.00
2018-04-26T00:27:16.194Z,1.60
2018-04-26T00:28:22.895Z,2.00
2018-04-26T00:29:29.583Z,1.90
2018-04-26T00:30:36.348Z,2.00
2018-04-26T00:31:43.032Z,2.00
2018-04-26T00:32:49.795Z,2.10
2018-04-26T00:33:56.499Z,2.00
2018-04-26T00:35:03.215Z,1.90
2018-04-26T00:36:09.907Z,1.90
2018-04-26T00:37:16.743Z,2.10
2018-04-26T00:38:23.463Z,2.20
2018-04-26T00:39:30.160Z,2.00
2018-04-26T00:40:36.870Z,2.00
2018-04-26T00:41:43.571Z,2.30
2018-04-26T00:42:50.286Z,2.20
2018-04-26T00:43:57.134Z,2.10
2018-04-26T00:45:03.822Z,2.20
2018-04-26T00:46:10.571Z,1.90
2018-04-26T00:47:17.270Z,1.90
2018-04-26T00:48:24.030Z,2.10
2018-04-26T00:49:30.706Z,1.90
2018-04-26T00:50:37.821Z,2.30
2018-04-26T00:51:44.510Z,2.50
2018-04-26T00:52:51.398Z,2.10
2018-04-26T00:53:58.095Z,2.00
2018-04-26T00:55:04.881Z,2.20
2018-04-26T00:56:11.819Z,2.50
2018-04-26T00:57:18.519Z,2.20
2018-04-26T00:58:25.298Z,2.60
2018-04-26T00:59:32.063Z,2.20
2018-04-26T01:00:38.793Z,1.90
2018-04-26T01:01:45.539Z,2.10
2018-04-26T01:02:52.359Z,2.50
2018-04-26T01:03:59.127Z,2.10
2018-04-26T01:05:05.898Z,2.10
2018-04-26T01:06:12.622Z,2.20
2018-04-26T01:07:19.438Z,2.20
2018-04-26T01:08:26.146Z,2.20
2018-04-26T01:09:32.891Z,2.10
2018-04-26T01:10:39.614Z,2.00
2018-04-26T01:11:46.340Z,2.00
2018-04-26T01:12:53.169Z,2.20
2018-04-26T01:13:59.883Z,2.10
2018-04-26T01:15:06.656Z,1.80
2018-04-26T01:16:13.405Z,2.20
2018-04-26T01:17:20.107Z,2.10
2018-04-26T01:18:27.003Z,2.00
2018-04-26T01:19:33.747Z,2.00
2018-04-26T01:20:40.497Z,2.20
2018-04-26T01:21:47.211Z,2.00
2018-04-26T01:22:54.007Z,2.30
2018-04-26T01:24:00.727Z,2.30
2018-04-26T01:25:07.498Z,2.40
2018-04-26T01:26:14.240Z,2.60
2018-04-26T01:27:21.083Z,2.30
2018-04-26T01:28:28.131Z,2.20
2018-04-26T01:29:34.896Z,2.20
2018-04-26T01:30:41.740Z,2.10
2018-04-26T01:31:48.481Z,2.00
2018-04-26T01:32:55.334Z,2.20
2018-04-26T01:34:02.099Z,2.10
2018-04-26T01:35:08.848Z,2.20
2018-04-26T01:36:15.560Z,2.20
2018-04-26T01:37:22.450Z,2.30
2018-04-26T01:38:29.507Z,2.00
2018-04-26T01:39:36.254Z,2.20
2018-04-26T01:40:43.014Z,2.30
2018-04-26T01:41:49.775Z,1.90
2018-04-26T01:42:56.487Z,2.40
2018-04-26T01:44:03.199Z,2.20
2018-04-26T01:45:10.019Z,2.40
2018-04-26T01:46:16.725Z,2.10
2018-04-26T01:47:23.467Z,2.30
2018-04-26T01:48:30.195Z,2.30
2018-04-26T01:49:36.942Z,2.20
2018-04-26T01:50:43.797Z,2.30
2018-04-26T01:51:50.531Z,2.40
2018-04-26T01:52:57.283Z,2.40
2018-04-26T01:54:04.004Z,2.20
2018-04-26T01:55:10.835Z,2.10
2018-04-26T01:56:17.588Z,2.80
2018-04-26T01:57:24.303Z,2.50
2018-04-26T01:58:31.075Z,2.50
2018-04-26T01:59:38.251Z,2.10
2018-04-26T02:00:45.081Z,2.40
2018-04-26T02:01:51.869Z,2.50
2018-04-26T02:02:58.606Z,2.10
2018-04-26T02:04:05.287Z,2.40
2018-04-26T02:05:11.971Z,2.20
2018-04-26T02:06:18.671Z,2.20
2018-04-26T02:07:25.426Z,2.40
2018-04-26T02:08:32.116Z,2.50
2018-04-26T02:09:38.856Z,2.20
2018-04-26T02:10:45.600Z,2.50
2018-04-26T02:11:52.295Z,1.90
2018-04-26T02:12:58.979Z,2.10
2018-04-26T02:14:05.804Z,2.40
2018-04-26T02:15:12.500Z,2.30
2018-04-26T02:16:19.223Z,2.40
2018-04-26T02:17:25.915Z,2.40
2018-04-26T02:18:32.669Z,2.20
2018-04-26T02:19:39.376Z,2.50
2018-04-26T02:20:46.152Z,2.60
2018-04-26T02:21:52.853Z,2.30
2018-04-26T02:22:59.604Z,2.40
2018-04-26T02:24:06.368Z,2.10
2018-04-26T02:25:13.064Z,2.50
2018-04-26T02:26:19.864Z,2.20
2018-04-26T02:27:26.585Z,2.20
2018-04-26T02:28:33.299Z,2.20
2018-04-26T02:29:40.035Z,2.20
2018-04-26T02:30:46.754Z,2.30
2018-04-26T02:31:53.481Z,2.20
2018-04-26T02:33:00.214Z,2.10
2018-04-26T02:34:06.942Z,2.40
2018-04-26T02:35:13.659Z,2.40
2018-04-26T02:36:20.352Z,2.20
2018-04-26T02:37:27.071Z,2.40
2018-04-26T02:38:33.739Z,2.40
2018-04-26T02:39:40.511Z,2.20
2018-04-26T02:40:47.199Z,2.30
2018-04-26T02:41:53.931Z,2.10
2018-04-26T02:43:00.675Z,2.50
2018-04-26T02:44:07.445Z,2.20
2018-04-26T02:45:14.251Z,2.30
2018-04-26T02:46:21.018Z,2.20
2018-04-26T02:47:28.003Z,2.30
2018-04-26T02:48:34.676Z,2.30
2018-04-26T02:49:41.844Z,2.20
2018-04-26T02:50:48.533Z,2.30
2018-04-26T02:51:55.278Z,2.40
2018-04-26T02:53:02.026Z,2.40
2018-04-26T02:54:08.863Z,2.50
2018-04-26T02:55:15.600Z,2.40
2018-04-26T02:56:22.359Z,2.50
2018-04-26T02:57:29.103Z,2.30
2018-04-26T02:58:35.823Z,2.30
2018-04-26T02:59:42.588Z,2.20
2018-04-26T03:00:49.294Z,3.20
2018-04-26T03:01:56.041Z,3.10
2018-04-26T03:03:02.776Z,2.50
2018-04-26T03:04:09.510Z,2.20
2018-04-26T03:05:16.298Z,2.60
2018-04-26T03:06:23.020Z,2.30
2018-04-26T03:07:29.763Z,2.30
2018-04-26T03:08:36.523Z,1.90
2018-04-26T03:09:43.367Z,2.20
2018-04-26T03:10:50.072Z,2.70
2018-04-26T03:11:56.791Z,2.00
2018-04-26T03:13:03.566Z,2.30
2018-04-26T03:14:10.266Z,1.90
2018-04-26T03:15:17.058Z,2.10
2018-04-26T03:16:23.772Z,2.50
2018-04-26T03:17:30.486Z,2.30
2018-04-26T03:18:37.257Z,2.10
2018-04-26T03:19:43.986Z,2.20
2018-04-26T03:20:50.785Z,2.20
2018-04-26T03:21:57.516Z,2.20
2018-04-26T03:23:04.224Z,2.00
2018-04-26T03:24:10.974Z,2.20
2018-04-26T03:25:17.707Z,2.20
2018-04-26T03:26:24.498Z,2.50
2018-04-26T03:27:31.208Z,2.20
2018-04-26T03:28:37.936Z,2.60
2018-04-26T03:29:44.667Z,2.30
2018-04-26T03:30:51.363Z,2.40
2018-04-26T03:31:58.102Z,2.40
2018-04-26T03:33:04.877Z,2.70
2018-04-26T03:34:11.636Z,2.60
2018-04-26T03:35:18.385Z,2.70
2018-04-26T03:36:25.107Z,2.40
2018-04-26T03:37:31.819Z,2.40
2018-04-26T03:38:38.594Z,2.60
2018-04-26T03:39:45.318Z,2.50
2018-04-26T03:40:52.051Z,2.40
2018-04-26T03:41:58.760Z,2.50
2018-04-26T03:43:05.470Z,2.50
2018-04-26T03:44:12.293Z,2.50
2018-04-26T03:45:18.985Z,3.00
2018-04-26T03:46:25.715Z,2.30
2018-04-26T03:47:32.423Z,2.70
2018-04-26T03:48:39.157Z,2.90
2018-04-26T03:49:45.866Z,2.90
2018-04-26T03:50:52.634Z,2.70
2018-04-26T03:51:59.339Z,2.60
2018-04-26T03:53:06.030Z,2.60
2018-04-26T03:54:12.796Z,2.40
2018-04-26T03:55:19.540Z,2.20
2018-04-26T03:56:26.631Z,2.50
2018-04-26T03:57:33.370Z,2.60
2018-04-26T03:58:40.175Z,2.60
2018-04-26T03:59:46.949Z,2.80
2018-04-26T04:00:53.807Z,2.60
2018-04-26T04:02:00.746Z,2.90
2018-04-26T04:03:09.174Z,2.30
2018-04-26T04:04:16.108Z,2.30
2018-04-26T04:05:24.419Z,3.50
2018-04-26T04:06:31.091Z,2.60
2018-04-26T04:07:37.840Z,2.70
2018-04-26T04:08:45.007Z,2.60
2018-04-26T04:09:52.178Z,2.90
2018-04-26T04:10:58.883Z,2.90
2018-04-26T04:12:05.570Z,2.40
2018-04-26T04:13:12.272Z,2.70
2018-04-26T04:14:18.963Z,2.80
2018-04-26T04:15:25.694Z,3.00
2018-04-26T04:16:32.358Z,2.60
2018-04-26T04:17:39.151Z,2.70
2018-04-26T04:18:45.922Z,3.00
2018-04-26T04:19:52.639Z,2.80
2018-04-26T04:20:59.347Z,2.90
2018-04-26T04:22:06.015Z,3.10
2018-04-26T04:23:13.188Z,2.70
2018-04-26T04:24:19.889Z,3.00
2018-04-26T04:25:26.754Z,3.00
2018-04-26T04:26:33.451Z,2.60
2018-04-26T04:27:40.154Z,3.00
2018-04-26T04:28:46.827Z,3.00
2018-04-26T04:29:53.523Z,2.30
2018-04-26T04:31:00.192Z,1.90
2018-04-26T04:32:06.987Z,3.50
2018-04-26T04:33:13.668Z,2.80
2018-04-26T04:34:20.334Z,3.20
2018-04-26T04:35:27.527Z,3.00
2018-04-26T04:36:34.231Z,2.70
2018-04-26T04:37:40.948Z,2.70
2018-04-26T04:38:47.630Z,3.10
2018-04-26T04:39:54.312Z,3.00
2018-04-26T04:41:01.039Z,2.40
2018-04-26T04:42:07.755Z,3.30
2018-04-26T04:43:14.527Z,2.40
2018-04-26T04:44:21.222Z,2.70
2018-04-26T04:45:28.022Z,2.60
2018-04-26T04:46:34.828Z,2.20
2018-04-26T04:47:41.503Z,2.80
2018-04-26T04:48:48.695Z,2.90
2018-04-26T04:49:55.378Z,2.70
2018-04-26T04:51:02.111Z,3.20
2018-04-26T04:52:08.776Z,2.70
2018-04-26T04:53:15.463Z,2.10
2018-04-26T04:54:22.262Z,2.70
2018-04-26T04:55:28.931Z,2.50
2018-04-26T04:56:36.103Z,3.20
2018-04-26T04:57:42.810Z,2.60
2018-04-26T04:58:49.543Z,3.50
2018-04-26T04:59:56.253Z,3.00
2018-04-26T05:01:03.050Z,2.90
2018-04-26T05:02:09.715Z,2.80
2018-04-26T05:03:16.885Z,2.70
2018-04-26T05:04:23.588Z,2.60
2018-04-26T05:05:30.250Z,2.60
2018-04-26T05:06:37.011Z,2.70
2018-04-26T05:07:43.693Z,2.30
2018-04-26T05:08:50.526Z,2.60
2018-04-26T05:09:57.243Z,2.90
2018-04-26T05:11:03.934Z,2.40
2018-04-26T05:12:10.658Z,3.20
2018-04-26T05:13:17.350Z,2.70
2018-04-26T05:14:24.037Z,2.70
2018-04-26T05:15:30.723Z,3.10
2018-04-26T05:16:37.406Z,3.00
2018-04-26T05:17:44.239Z,2.90
2018-04-26T05:18:50.915Z,3.30
2018-04-26T05:19:57.594Z,3.00
2018-04-26T05:21:04.276Z,3.20
2018-04-26T05:22:11.024Z,2.70
2018-04-26T05:23:17.711Z,3.00
2018-04-26T05:24:24.420Z,2.80
2018-04-26T05:25:31.196Z,3.40
2018-04-26T05:26:37.959Z,3.20
2018-04-26T05:27:44.783Z,2.60
2018-04-26T05:28:51.493Z,2.70
2018-04-26T05:29:58.395Z,2.80
2018-04-26T05:31:05.076Z,2.80
2018-04-26T05:32:11.845Z,3.00
2018-04-26T05:33:18.551Z,2.60
2018-04-26T05:34:25.358Z,2.40
2018-04-26T05:35:32.042Z,3.20
2018-04-26T05:36:38.728Z,2.30
2018-04-26T05:37:45.448Z,2.60
2018-04-26T05:38:52.173Z,3.30
2018-04-26T05:39:58.942Z,3.80
2018-04-26T05:41:05.751Z,2.60
2018-04-26T05:42:12.515Z,2.90
2018-04-26T05:43:19.272Z,3.00
2018-04-26T05:44:26.003Z,3.20
2018-04-26T05:45:32.828Z,3.10
2018-04-26T05:46:39.511Z,3.20
2018-04-26T05:47:46.246Z,2.90
2018-04-26T05:48:53.003Z,3.00
2018-04-26T05:49:59.682Z,2.70
2018-04-26T05:51:06.367Z,2.90
2018-04-26T05:52:13.150Z,2.60
2018-04-26T05:53:19.831Z,3.00
2018-04-26T05:54:26.518Z,2.90
2018-04-26T05:55:33.217Z,2.70
2018-04-26T05:56:39.921Z,3.20
2018-04-26T05:57:46.643Z,2.70
2018-04-26T05:58:53.336Z,2.70
2018-04-26T06:00:00.146Z,2.60
2018-04-26T06:01:06.955Z,2.90
2018-04-26T06:02:13.676Z,2.80
2018-04-26T06:03:20.373Z,3.40
2018-04-26T06:04:27.106Z,2.60
2018-04-26T06:05:33.867Z,3.60
2018-04-26T06:06:40.547Z,2.80
2018-04-26T06:07:47.238Z,2.80
2018-04-26T06:08:53.994Z,2.80
2018-04-26T06:10:00.711Z,3.00
2018-04-26T06:11:07.552Z,3.00
2018-04-26T06:12:14.251Z,3.40
2018-04-26T06:13:20.951Z,2.70
2018-04-26T06:14:27.737Z,2.80
2018-04-26T06:15:34.599Z,3.40
2018-04-26T06:16:41.278Z,3.60
2018-04-26T06:17:47.995Z,3.00
2018-04-26T06:18:54.704Z,3.00
2018-04-26T06:20:01.471Z,6.20
2018-04-26T06:21:08.310Z,6.40
2018-04-26T06:22:15.070Z,6.00
2018-04-26T06:23:21.815Z,6.40
2018-04-26T06:24:28.531Z,4.90
2018-04-26T06:25:35.287Z,2.70
2018-04-26T06:26:41.984Z,3.30
2018-04-26T06:27:48.730Z,3.10
2018-04-26T06:28:55.446Z,3.00
2018-04-26T06:30:02.176Z,3.20
2018-04-26T06:31:09.064Z,2.70
2018-04-26T06:32:16.351Z,2.90
2018-04-26T06:34:29.989Z,3.00
2018-04-26T06:35:36.885Z,2.90
2018-04-26T06:36:43.642Z,3.20
2018-04-26T06:37:50.152Z,3.10
2018-04-26T06:38:56.968Z,3.00
2018-04-26T06:40:05.420Z,2.80
2018-04-26T06:41:10.596Z,3.40
2018-04-26T06:42:17.360Z,3.30
2018-04-26T06:43:24.094Z,3.40
2018-04-26T06:44:30.805Z,3.40
2018-04-26T06:45:37.594Z,3.20
2018-04-26T06:46:44.427Z,2.90
2018-04-26T06:47:51.224Z,3.20
2018-04-26T06:48:57.873Z,2.70
2018-04-26T06:50:04.616Z,3.30
2018-04-26T06:51:11.349Z,3.00
2018-04-26T06:52:18.139Z,3.10
2018-04-26T06:53:24.937Z,4.10
2018-04-26T06:54:31.628Z,3.40
2018-04-26T06:55:38.349Z,3.50
2018-04-26T06:56:45.153Z,3.20
2018-04-26T06:57:51.858Z,3.50
2018-04-26T06:58:58.550Z,3.10
2018-04-26T07:00:05.258Z,3.50
2018-04-26T07:01:11.987Z,3.10
2018-04-26T07:02:18.736Z,3.10
2018-04-26T07:03:25.442Z,3.20
2018-04-26T07:04:32.247Z,3.30
2018-04-26T07:05:39.001Z,2.90
2018-04-26T07:06:45.688Z,2.90
2018-04-26T07:07:52.414Z,3.00
2018-04-26T07:08:59.224Z,2.80
2018-04-26T07:10:05.955Z,3.20
2018-04-26T07:11:12.664Z,3.10
2018-04-26T07:12:19.359Z,3.20
2018-04-26T07:13:26.096Z,3.30
2018-04-26T07:14:32.810Z,3.40
2018-04-26T07:15:39.507Z,3.30
2018-04-26T07:16:46.323Z,3.40
2018-04-26T07:17:52.990Z,3.00
2018-04-26T07:18:59.668Z,3.60
2018-04-26T07:20:06.340Z,3.10
2018-04-26T07:21:13.082Z,3.20
2018-04-26T07:22:19.806Z,3.10
2018-04-26T07:23:26.517Z,3.30
2018-04-26T07:24:33.363Z,3.10
2018-04-26T07:25:40.103Z,2.90
2018-04-26T07:26:46.856Z,2.90
2018-04-26T07:27:53.547Z,2.70
2018-04-26T07:29:00.228Z,2.60
2018-04-26T07:30:07.126Z,2.90
2018-04-26T07:31:13.955Z,2.80
2018-04-26T07:32:20.686Z,5.10
2018-04-26T07:33:27.520Z,3.80
2018-04-26T07:34:34.427Z,3.20
2018-04-26T07:35:41.129Z,3.00
2018-04-26T07:36:48.265Z,2.70
2018-04-26T07:37:54.954Z,2.70
2018-04-26T07:39:01.726Z,3.00
2018-04-26T07:40:08.868Z,3.00
2018-04-26T07:41:15.543Z,3.00
2018-04-26T07:42:22.248Z,3.00
2018-04-26T07:43:28.955Z,3.00
2018-04-26T07:44:35.626Z,3.20
2018-04-26T07:45:42.403Z,2.70
2018-04-26T07:46:49.243Z,3.00
2018-04-26T07:47:55.942Z,2.80
2018-04-26T07:49:02.766Z,3.10
2018-04-26T07:50:09.664Z,2.80
2018-04-26T07:51:18.583Z,2.70
2018-04-26T07:52:23.339Z,2.90
2018-04-26T07:53:30.054Z,3.30
2018-04-26T07:54:37.239Z,3.20
2018-04-26T07:55:43.966Z,2.40
2018-04-26T07:56:50.764Z,2.60
2018-04-26T07:57:57.478Z,2.60
2018-04-26T07:59:04.263Z,2.30
2018-04-26T08:00:11.038Z,2.70
2018-04-26T08:01:17.726Z,2.60
2018-04-26T08:02:24.492Z,2.40
2018-04-26T08:03:31.298Z,2.60
2018-04-26T08:04:37.999Z,2.80
2018-04-26T08:05:44.731Z,2.40
2018-04-26T08:06:51.426Z,2.70
2018-04-26T08:07:58.160Z,2.50
2018-04-26T08:09:04.968Z,2.50
2018-04-26T08:10:11.723Z,2.70
2018-04-26T08:11:18.438Z,2.20
2018-04-26T08:12:25.233Z,3.00
2018-04-26T08:13:32.008Z,2.30
2018-04-26T08:14:38.771Z,2.30
2018-04-26T08:15:45.519Z,2.90
2018-04-26T08:16:52.216Z,2.30
2018-04-26T08:17:59.052Z,2.30
2018-04-26T08:19:05.751Z,2.10
2018-04-26T08:20:12.484Z,2.50
2018-04-26T08:21:19.696Z,2.40
2018-04-26T08:22:25.962Z,2.50
2018-04-26T08:23:32.687Z,2.70
2018-04-26T08:24:39.394Z,2.30
2018-04-26T08:25:46.228Z,2.60
2018-04-26T08:26:53.083Z,2.60
2018-04-26T08:27:59.831Z,2.40
2018-04-26T08:29:06.571Z,2.60
2018-04-26T08:30:13.283Z,2.50
2018-04-26T08:31:19.994Z,2.80
2018-04-26T08:32:26.757Z,2.10
2018-04-26T08:33:33.474Z,2.30
2018-04-26T08:34:40.230Z,2.30
2018-04-26T08:35:46.954Z,2.50
2018-04-26T08:36:53.703Z,2.40
2018-04-26T08:38:00.466Z,2.30
2018-04-26T08:39:07.255Z,2.80
2018-04-26T08:40:14.237Z,2.70
2018-04-26T08:41:20.939Z,2.40
2018-04-26T08:42:27.772Z,2.60
2018-04-26T08:43:34.511Z,2.50
2018-04-26T08:44:41.335Z,2.80
2018-04-26T08:45:48.055Z,2.60
2018-04-26T08:46:54.782Z,2.60
2018-04-26T08:48:01.503Z,2.40
2018-04-26T08:49:08.210Z,2.50
2018-04-26T08:50:14.995Z,2.40
2018-04-26T08:51:21.750Z,2.50
2018-04-26T08:52:28.474Z,2.30
2018-04-26T08:53:35.241Z,3.00
2018-04-26T08:54:42.064Z,2.30
2018-04-26T08:55:48.876Z,2.30
2018-04-26T08:56:55.601Z,2.40
2018-04-26T08:58:02.299Z,2.40
2018-04-26T08:59:09.134Z,2.70
2018-04-26T09:00:15.859Z,2.40
2018-04-26T09:01:22.598Z,2.20
2018-04-26T09:02:29.347Z,2.70
2018-04-26T09:03:36.424Z,2.30
2018-04-26T09:04:43.187Z,2.50
2018-04-26T09:05:49.994Z,2.50
2018-04-26T09:06:56.763Z,2.50
2018-04-26T09:08:03.506Z,2.40
2018-04-26T09:09:10.425Z,2.50
2018-04-26T09:10:17.154Z,2.50
2018-04-26T09:11:23.903Z,2.70
2018-04-26T09:12:30.594Z,2.40
2018-04-26T09:13:37.302Z,2.30
2018-04-26T09:14:44.066Z,2.20
2018-04-26T09:15:50.831Z,2.50
2018-04-26T09:16:57.626Z,2.20
2018-04-26T09:18:04.367Z,2.20
2018-04-26T09:19:11.238Z,2.90
2018-04-26T09:20:18.288Z,2.90
2018-04-26T09:21:25.077Z,2.40
2018-04-26T09:22:31.815Z,2.30
2018-04-26T09:23:38.534Z,2.20
2018-04-26T09:24:45.279Z,2.40
2018-04-26T09:25:52.015Z,2.60
2018-04-26T09:26:58.699Z,2.80
2018-04-26T09:28:05.407Z,2.20
2018-04-26T09:29:12.110Z,2.20
2018-04-26T09:30:18.859Z,2.50
2018-04-26T09:31:25.615Z,2.20
2018-04-26T09:32:32.458Z,2.20
2018-04-26T09:33:39.140Z,1.90
2018-04-26T09:34:45.903Z,2.30
2018-04-26T09:35:52.635Z,2.60
2018-04-26T09:36:59.481Z,2.40
2018-04-26T09:38:06.219Z,2.10
2018-04-26T09:39:12.934Z,2.40
2018-04-26T09:40:19.682Z,2.10
2018-04-26T09:41:26.387Z,2.70
2018-04-26T09:42:33.192Z,2.10
2018-04-26T09:43:39.905Z,2.30
2018-04-26T09:44:46.825Z,2.20
2018-04-26T09:45:53.702Z,2.90
2018-04-26T09:47:00.436Z,2.50
2018-04-26T09:48:07.185Z,2.30
2018-04-26T09:49:14.059Z,2.20
2018-04-26T09:50:20.842Z,2.40
2018-04-26T09:51:27.600Z,2.30
2018-04-26T09:52:34.298Z,2.30
2018-04-26T09:53:41.110Z,2.50
2018-04-26T09:54:47.831Z,2.00
2018-04-26T09:55:54.639Z,2.40
2018-04-26T09:57:01.338Z,2.90
2018-04-26T09:58:08.207Z,2.30
2018-04-26T09:59:15.355Z,2.00
2018-04-26T10:00:22.059Z,2.20
2018-04-26T10:01:29.191Z,2.20
2018-04-26T10:02:36.301Z,2.80
2018-04-26T10:03:43.254Z,2.50
2018-04-26T10:04:50.109Z,2.30
2018-04-26T10:05:57.039Z,2.70
2018-04-26T10:07:04.000Z,2.50
2018-04-26T10:08:10.858Z,2.30
2018-04-26T10:09:17.666Z,2.60
2018-04-26T10:10:24.422Z,2.60
2018-04-26T10:11:31.185Z,2.40
2018-04-26T10:12:37.910Z,2.50
2018-04-26T10:13:44.671Z,2.40
2018-04-26T10:14:51.427Z,2.10
2018-04-26T10:15:58.170Z,2.10
2018-04-26T10:17:04.939Z,2.30
2018-04-26T10:18:11.635Z,2.10
2018-04-26T10:19:18.462Z,2.70
2018-04-26T10:20:25.157Z,2.60
2018-04-26T10:21:33.390Z,2.90
2018-04-26T10:22:38.575Z,2.20
2018-04-26T10:23:45.294Z,2.10
2018-04-26T10:24:51.986Z,2.40
2018-04-26T10:25:58.703Z,2.10
2018-04-26T10:27:05.475Z,2.70
2018-04-26T10:28:12.146Z,2.50
2018-04-26T10:29:18.931Z,2.60
2018-04-26T10:30:25.629Z,2.30
2018-04-26T10:31:32.374Z,2.60
2018-04-26T10:32:39.141Z,2.50
2018-04-26T10:33:45.866Z,2.20
2018-04-26T10:34:52.566Z,2.10
2018-04-26T10:35:59.275Z,2.20
2018-04-26T10:37:06.265Z,2.20
2018-04-26T10:38:12.986Z,2.10
2018-04-26T10:39:19.683Z,2.30
2018-04-26T10:40:26.415Z,1.70
2018-04-26T10:41:33.139Z,2.20
2018-04-26T10:42:39.936Z,2.40
2018-04-26T10:43:46.681Z,2.50
2018-04-26T10:44:53.338Z,2.10
2018-04-26T10:46:00.046Z,2.30
2018-04-26T10:47:06.779Z,2.40
2018-04-26T10:48:13.465Z,2.40
2018-04-26T10:49:20.180Z,2.00
2018-04-26T10:50:26.979Z,2.30
2018-04-26T10:51:33.741Z,2.10
2018-04-26T10:52:40.451Z,2.50
2018-04-26T10:53:47.398Z,2.50
2018-04-26T10:54:54.185Z,2.40
2018-04-26T10:56:00.886Z,2.40
2018-04-26T10:57:07.651Z,2.70
2018-04-26T10:58:14.498Z,2.20
2018-04-26T10:59:21.244Z,2.10
2018-04-26T11:00:27.966Z,2.10
2018-04-26T11:01:34.670Z,2.50
2018-04-26T11:02:41.358Z,2.10
2018-04-26T11:03:48.030Z,2.30
2018-04-26T11:04:55.203Z,2.40
2018-04-26T11:06:01.961Z,2.70
2018-04-26T11:07:08.808Z,2.30
2018-04-26T11:08:15.764Z,2.50
2018-04-26T11:09:22.489Z,2.10
2018-04-26T11:10:29.207Z,2.50
2018-04-26T11:11:36.296Z,2.40
2018-04-26T11:12:43.012Z,2.80
2018-04-26T11:13:53.583Z,2.50
2018-04-26T11:14:56.848Z,2.40
2018-04-26T11:16:03.659Z,2.30
2018-04-26T11:17:10.435Z,2.50
2018-04-26T11:18:17.230Z,2.40
2018-04-26T11:19:23.851Z,2.20
2018-04-26T11:20:30.607Z,2.00
2018-04-26T11:21:37.608Z,2.50
2018-04-26T11:22:44.550Z,2.10
2018-04-26T11:23:51.258Z,2.10
2018-04-26T11:24:57.979Z,2.00
2018-04-26T11:26:04.772Z,2.80
2018-04-26T11:27:11.491Z,2.00
2018-04-26T11:28:18.260Z,2.20
2018-04-26T11:29:25.001Z,2.30
2018-04-26T11:30:31.699Z,2.00
2018-04-26T11:31:38.405Z,2.40
2018-04-26T11:32:45.115Z,2.40
2018-04-26T11:33:51.834Z,2.20
2018-04-26T11:34:58.607Z,2.10
2018-04-26T11:36:05.409Z,2.80
2018-04-26T11:37:12.115Z,2.30
2018-04-26T11:38:19.353Z,2.50
2018-04-26T11:39:25.694Z,2.10
2018-04-26T11:40:32.423Z,2.40
2018-04-26T11:41:39.143Z,2.10
2018-04-26T11:42:45.867Z,2.30
2018-04-26T11:43:52.602Z,2.10
2018-04-26T11:44:59.396Z,2.20
2018-04-26T11:46:06.073Z,1.90
2018-04-26T11:47:12.819Z,2.20
2018-04-26T11:48:19.494Z,2.40
2018-04-26T11:49:26.227Z,2.70
2018-04-26T11:50:32.928Z,2.30
2018-04-26T11:51:39.695Z,2.10
2018-04-26T11:52:46.940Z,2.20
2018-04-26T11:53:53.655Z,2.10
2018-04-26T11:55:00.363Z,2.30
2018-04-26T11:56:07.106Z,2.40
2018-04-26T11:57:13.915Z,2.30
2018-04-26T11:58:20.644Z,2.60
2018-04-26T11:59:27.390Z,2.20
2018-04-26T12:00:34.097Z,2.40
2018-04-26T12:01:40.915Z,2.20
2018-04-26T12:02:47.721Z,2.40
2018-04-26T12:03:54.374Z,2.20
2018-04-26T12:05:04.532Z,2.20
2018-04-26T12:06:07.762Z,2.10
2018-04-26T12:07:14.931Z,2.40
2018-04-26T12:08:21.639Z,2.20
2018-04-26T12:09:28.342Z,2.30
2018-04-26T12:10:35.142Z,2.70
2018-04-26T12:11:41.821Z,2.70
2018-04-26T12:12:48.986Z,2.60
2018-04-26T12:13:55.691Z,2.20
2018-04-26T12:15:02.435Z,2.30
2018-04-26T12:16:09.168Z,2.10
2018-04-26T12:17:15.979Z,2.40
2018-04-26T12:18:22.665Z,2.50
2018-04-26T12:19:29.400Z,2.30
2018-04-26T12:20:36.098Z,2.70
2018-04-26T12:21:42.778Z,2.70
2018-04-26T12:22:49.484Z,2.40
2018-04-26T12:23:56.249Z,2.50
2018-04-26T12:25:02.999Z,2.50
2018-04-26T12:26:09.683Z,2.50
2018-04-26T12:27:16.383Z,2.50
2018-04-26T12:28:23.104Z,2.40
2018-04-26T12:29:29.807Z,2.50
2018-04-26T12:30:36.503Z,2.10
2018-04-26T12:31:43.206Z,2.30
2018-04-26T12:32:49.931Z,2.10
2018-04-26T12:33:56.642Z,2.30
2018-04-26T12:35:03.344Z,2.60
2018-04-26T12:36:10.058Z,2.20
2018-04-26T12:37:16.739Z,2.40
2018-04-26T12:38:23.967Z,2.20
2018-04-26T12:39:30.857Z,2.20
2018-04-26T12:40:37.599Z,2.40
2018-04-26T12:41:44.307Z,2.40
2018-04-26T12:42:51.463Z,2.20
2018-04-26T12:43:58.313Z,2.20
2018-04-26T12:45:05.259Z,2.10
2018-04-26T12:46:12.047Z,2.10
2018-04-26T12:47:18.924Z,2.20
2018-04-26T12:48:25.862Z,2.30
2018-04-26T12:49:32.667Z,2.10
2018-04-26T12:50:39.584Z,2.80
2018-04-26T12:51:46.339Z,2.50
2018-04-26T12:52:53.098Z,2.30
2018-04-26T12:53:59.806Z,2.30
2018-04-26T12:55:06.624Z,2.30
2018-04-26T12:56:13.374Z,2.60
2018-04-26T12:57:20.079Z,2.50
2018-04-26T12:58:26.795Z,2.40
2018-04-26T12:59:33.742Z,2.10
2018-04-26T13:00:40.647Z,2.30
2018-04-26T13:01:47.371Z,2.10
2018-04-26T13:02:54.074Z,2.60
2018-04-26T13:04:00.854Z,2.20
2018-04-26T13:05:07.597Z,2.20
2018-04-26T13:06:14.407Z,2.20
2018-04-26T13:07:21.122Z,2.40
2018-04-26T13:08:27.842Z,2.50
2018-04-26T13:09:34.647Z,2.30
2018-04-26T13:10:41.425Z,1.90
2018-04-26T13:11:48.167Z,2.60
2018-04-26T13:12:54.898Z,2.00
2018-04-26T13:14:01.644Z,2.20
2018-04-26T13:15:08.768Z,2.30
2018-04-26T13:16:15.203Z,2.50
2018-04-26T13:17:22.047Z,2.20
2018-04-26T13:18:28.811Z,1.80
2018-04-26T13:19:35.575Z,2.40
2018-04-26T13:20:42.420Z,2.30
2018-04-26T13:21:49.238Z,2.70
2018-04-26T13:22:55.966Z,2.30
2018-04-26T13:24:02.707Z,3.40
2018-04-26T13:25:09.451Z,3.20
2018-04-26T13:26:16.247Z,2.90
2018-04-26T13:27:23.048Z,2.10
2018-04-26T13:28:29.858Z,2.20
2018-04-26T13:29:36.802Z,2.30
2018-04-26T13:30:43.530Z,2.20
2018-04-26T13:31:50.390Z,2.20
2018-04-26T13:32:57.395Z,2.10
2018-04-26T13:34:04.139Z,2.00
2018-04-26T13:35:10.891Z,2.30
2018-04-26T13:36:17.609Z,2.60
2018-04-26T13:37:24.335Z,2.50
2018-04-26T13:38:31.192Z,2.20
2018-04-26T13:39:37.918Z,2.60
2018-04-26T13:40:44.631Z,2.30
2018-04-26T13:41:51.391Z,2.20
2018-04-26T13:42:58.174Z,2.00
2018-04-26T13:44:04.890Z,2.10
2018-04-26T13:45:11.598Z,2.10
2018-04-26T13:46:18.405Z,2.00
2018-04-26T13:47:25.083Z,2.30
2018-04-26T13:48:31.839Z,2.00
2018-04-26T13:49:38.607Z,2.40
2018-04-26T13:50:45.306Z,2.40
2018-04-26T13:51:52.051Z,2.60
2018-04-26T13:52:58.875Z,2.50
2018-04-26T13:54:05.578Z,2.80
2018-04-26T13:55:12.298Z,2.10
2018-04-26T13:56:18.988Z,2.50
2018-04-26T13:57:25.740Z,2.80
2018-04-26T13:58:32.514Z,2.60
2018-04-26T13:59:39.257Z,2.50
2018-04-26T14:00:46.062Z,2.40
2018-04-26T14:01:52.774Z,2.30
2018-04-26T14:02:59.570Z,2.40
2018-04-26T14:04:06.291Z,2.30
2018-04-26T14:05:13.005Z,1.90
2018-04-26T14:06:19.743Z,2.40
2018-04-26T14:07:26.475Z,1.60
2018-04-26T14:08:33.206Z,2.10
2018-04-26T14:09:39.916Z,1.90
2018-04-26T14:10:46.614Z,2.00
2018-04-26T14:11:53.339Z,2.20
2018-04-26T14:13:00.047Z,2.20
2018-04-26T14:14:06.873Z,2.50
2018-04-26T14:15:13.595Z,2.40
2018-04-26T14:16:20.302Z,2.50
2018-04-26T14:17:27.078Z,2.30
2018-04-26T14:18:33.782Z,2.40
2018-04-26T14:19:40.555Z,2.10
2018-04-26T14:20:47.226Z,2.20
2018-04-26T14:21:54.344Z,2.10
2018-04-26T14:23:01.224Z,1.90
2018-04-26T14:24:07.931Z,2.10
2018-04-26T14:25:14.726Z,2.30
2018-04-26T14:26:21.443Z,2.20
2018-04-26T14:27:28.170Z,2.30
2018-04-26T14:28:35.166Z,2.30
2018-04-26T14:29:41.951Z,2.10
2018-04-26T14:30:50.902Z,1.90
2018-04-26T14:31:55.755Z,2.00
2018-04-26T14:33:02.770Z,2.10
2018-04-26T14:34:09.501Z,2.30
2018-04-26T14:35:16.236Z,2.00
2018-04-26T14:36:28.100Z,2.00
2018-04-26T14:37:30.013Z,2.00
2018-04-26T14:38:36.719Z,2.30
2018-04-26T14:38:55.607Z,2.60
2018-04-26T14:40:02.291Z,2.00
2018-04-26T14:41:09.194Z,1.90
2018-04-26T14:42:16.181Z,2.40
2018-04-26T14:43:22.983Z,2.30
2018-04-26T14:44:29.690Z,2.00
2018-04-26T14:45:36.426Z,2.20
2018-04-26T14:46:43.199Z,2.50
2018-04-26T14:47:50.099Z,2.40
2018-04-26T14:48:56.870Z,2.30